Huvudsida
METAR-TAF:

METAR-TAF

Flygplatser :

Starptautiskā lidosta "Liepāja"

Liepāja, Lettland

latitud: 56-31N, longitud: 021-05E, höjd: 5 m

Aktuellt väderrapport

Denna rapport gjordes för 32 minuter sedan, klockan 12:20 UTC
Vind 12 kt från sydväst
Temperatur 22°C
Fuktighet 78%
Tryck 1017 hPa
Sikt 10 km eller mer

METAR: EVLA 181220Z AUTO 23012KT 9999 BKN015/// BKN029/// BKN055/// 22/18 Q1017

Tid: 15:52 (12:52 UTC)

Väderprognos

Denna rapport gjordes för 1 timme och 44 minuter sedan, klockan 11:08 UTC
Prognos gäller från 18 kl. 12 UTC till 19 kl. 12 UTC
Vind 7 kt från väst/sydväst
Sikt 10 km eller mer
Spridda moln på en höjd av 3000 ft

TAF: EVLA 181108Z 1812/1912 24007KT 9999 SCT030

Aktuella väderrapporter och prognoser från 4000 flygplatser (METAR- och TAF-rapporter).

De tillgängliga stationerna syns som gula och röda prickar på kartan.

För musen över prickarna för att se namnen på stationerna.

Klicka sedan för att få väderrapporter och prognoser.

För att ändra kartan: Klicka på de gröna knapparna med ett svart kors på för att zooma in; den gröna knappen med ett streck på för att zooma ut; eller på de gröna pilarna för angränsande kartor.


METAR-TAF: